createdAt,value
2019-03-22T00:02:49.598Z,9.30
2019-03-22T00:05:39.255Z,9.00
2019-03-22T00:08:28.909Z,9.10
2019-03-22T00:11:18.612Z,8.90
2019-03-22T00:14:08.234Z,8.80
2019-03-22T00:16:57.895Z,8.90
2019-03-22T00:19:47.542Z,9.00
2019-03-22T00:22:37.309Z,9.00
2019-03-22T00:25:26.937Z,8.80
2019-03-22T00:28:16.567Z,8.90
2019-03-22T00:31:18.210Z,9.00
2019-03-22T00:34:00.455Z,9.10
2019-03-22T00:36:42.912Z,9.10
2019-03-22T00:39:24.563Z,9.10
2019-03-22T00:42:06.360Z,8.90
2019-03-22T00:44:48.384Z,8.60
2019-03-22T00:47:30.770Z,8.70
2019-03-22T00:50:13.083Z,8.60
2019-03-22T00:55:26.801Z,8.60
2019-03-22T00:58:16.432Z,8.70
2019-03-22T01:01:06.143Z,8.60
2019-03-22T01:03:55.713Z,8.30
2019-03-22T01:06:45.402Z,8.30
2019-03-22T01:12:49.995Z,8.60
2019-03-22T01:15:32.024Z,8.30
2019-03-22T01:18:13.613Z,8.40
2019-03-22T01:20:55.646Z,8.50
2019-03-22T01:23:37.645Z,8.50
2019-03-22T01:26:19.825Z,8.40
2019-03-22T01:29:01.684Z,8.30
2019-03-22T01:31:32.571Z,8.40
2019-03-22T01:34:22.245Z,8.20
2019-03-22T01:37:11.919Z,8.20
2019-03-22T01:40:01.636Z,8.20
2019-03-22T01:42:51.278Z,8.30
2019-03-22T01:45:40.962Z,8.30
2019-03-22T01:48:30.557Z,8.40
2019-03-22T01:51:20.225Z,8.30
2019-03-22T01:54:29.257Z,8.30
2019-03-22T01:57:19.090Z,8.20
2019-03-22T02:00:09.405Z,8.30
2019-03-22T02:02:59.092Z,8.00
2019-03-22T02:05:48.774Z,7.90
2019-03-22T02:08:38.652Z,7.90
2019-03-22T02:11:28.327Z,7.60
2019-03-22T02:14:17.947Z,7.70
2019-03-22T02:16:59.633Z,7.80
2019-03-22T02:19:41.864Z,7.80
2019-03-22T02:22:23.582Z,7.90
2019-03-22T02:25:05.578Z,8.00
2019-03-22T02:27:47.955Z,8.00
2019-03-22T02:30:30.228Z,8.10
2019-03-22T02:33:11.784Z,8.10
2019-03-22T02:35:53.974Z,7.80
2019-03-22T02:38:35.515Z,7.80
2019-03-22T02:41:17.464Z,7.80
2019-03-22T02:43:59.081Z,7.60
2019-03-22T02:46:40.902Z,7.20
2019-03-22T02:49:23.373Z,7.40
2019-03-22T02:52:05.625Z,7.60
2019-03-22T02:54:47.601Z,7.70
2019-03-22T02:57:29.487Z,7.60
2019-03-22T03:00:11.974Z,7.40
2019-03-22T03:02:54.212Z,7.40
2019-03-22T03:05:36.297Z,7.60
2019-03-22T03:10:49.891Z,7.20
2019-03-22T03:13:20.814Z,7.60
2019-03-22T03:16:03.191Z,7.80
2019-03-22T03:18:45.182Z,7.90
2019-03-22T03:21:27.205Z,8.00
2019-03-22T03:24:09.214Z,8.00
2019-03-22T03:26:51.594Z,7.90
2019-03-22T03:29:33.620Z,7.80
2019-03-22T03:32:15.887Z,7.80
2019-03-22T03:34:57.623Z,7.80
2019-03-22T03:37:39.805Z,7.80
2019-03-22T03:40:21.498Z,7.60
2019-03-22T03:43:03.558Z,7.60
2019-03-22T03:45:45.367Z,7.40
2019-03-22T03:48:27.432Z,7.50
2019-03-22T03:51:09.001Z,7.60
2019-03-22T03:53:39.861Z,7.70
2019-03-22T03:56:29.504Z,7.60
2019-03-22T03:59:19.149Z,7.40
2019-03-22T04:02:08.890Z,7.50
2019-03-22T04:04:58.475Z,7.40
2019-03-22T04:07:48.130Z,7.30
2019-03-22T04:10:37.837Z,7.20
2019-03-22T04:13:27.548Z,7.10
2019-03-22T04:16:09.394Z,6.80
2019-03-22T04:18:51.645Z,6.80
2019-03-22T04:21:33.683Z,7.10
2019-03-22T04:24:15.481Z,7.10
2019-03-22T04:26:57.232Z,7.00
2019-03-22T04:29:39.079Z,6.90
2019-03-22T04:32:21.634Z,7.00
2019-03-22T04:35:03.739Z,6.80
2019-03-22T04:37:45.642Z,6.80
2019-03-22T04:40:27.637Z,6.70
2019-03-22T04:43:09.355Z,6.80
2019-03-22T04:45:51.737Z,6.90
2019-03-22T04:48:33.917Z,6.90
2019-03-22T04:51:16.165Z,6.80
2019-03-22T04:53:58.434Z,6.90
2019-03-22T04:59:53.511Z,7.00
2019-03-22T05:02:43.363Z,7.00
2019-03-22T05:05:52.969Z,7.00
2019-03-22T05:09:02.158Z,7.10
2019-03-22T05:12:14.179Z,6.90
2019-03-22T05:15:43.403Z,6.70
2019-03-22T05:18:33.674Z,6.70
2019-03-22T05:21:44.564Z,6.40
2019-03-22T05:24:54.615Z,6.30
2019-03-22T05:28:04.659Z,6.30
2019-03-22T05:31:13.076Z,6.40
2019-03-22T05:34:02.737Z,6.30
2019-03-22T05:36:33.676Z,6.00
2019-03-22T05:39:23.378Z,6.00
2019-03-22T05:42:13.044Z,6.00
2019-03-22T05:45:22.093Z,6.00
2019-03-22T05:48:11.741Z,6.10
2019-03-22T05:51:01.483Z,6.10
2019-03-22T05:53:51.207Z,6.30
2019-03-22T05:56:40.840Z,6.40
2019-03-22T05:59:41.557Z,6.70
2019-03-22T06:02:41.738Z,6.80
2019-03-22T06:05:31.306Z,6.50
2019-03-22T06:08:21.005Z,6.40
2019-03-22T06:11:10.693Z,6.40
2019-03-22T06:14:00.259Z,6.80
2019-03-22T06:16:49.933Z,6.80
2019-03-22T06:19:39.639Z,6.90
2019-03-22T06:22:29.385Z,6.90
2019-03-22T06:25:19.058Z,7.00
2019-03-22T06:28:08.757Z,7.00
2019-03-22T06:30:58.351Z,7.10
2019-03-22T06:34:07.517Z,7.10
2019-03-22T06:36:57.132Z,7.10
2019-03-22T06:40:06.400Z,7.20
2019-03-22T06:42:56.029Z,7.30
2019-03-22T06:45:45.718Z,7.30
2019-03-22T06:48:35.385Z,7.30
2019-03-22T06:51:25.049Z,7.30
2019-03-22T06:54:07.017Z,7.30
2019-03-22T06:56:49.200Z,7.40
2019-03-22T06:59:31.242Z,7.40
2019-03-22T07:02:13.096Z,7.30
2019-03-22T07:04:55.191Z,7.10
2019-03-22T07:10:19.880Z,7.30
2019-03-22T07:12:50.725Z,7.70
2019-03-22T07:15:40.314Z,7.60
2019-03-22T07:18:49.384Z,7.50
2019-03-22T07:21:38.930Z,7.60
2019-03-22T07:24:28.670Z,7.80
2019-03-22T07:27:18.342Z,8.10
2019-03-22T07:30:18.055Z,8.30
2019-03-22T07:33:00.215Z,8.40
2019-03-22T07:35:49.802Z,8.40
2019-03-22T07:38:39.535Z,8.30
2019-03-22T07:41:29.173Z,8.30
2019-03-22T07:44:18.831Z,8.40
2019-03-22T07:47:08.511Z,8.50
2019-03-22T07:49:58.160Z,8.60
2019-03-22T07:52:47.759Z,8.60
2019-03-22T07:55:18.604Z,8.70
2019-03-22T07:58:08.284Z,8.80
2019-03-22T08:00:57.959Z,8.80
2019-03-22T08:03:47.769Z,8.80
2019-03-22T08:06:37.451Z,8.90
2019-03-22T08:09:27.109Z,8.90
2019-03-22T08:12:19.397Z,9.00
2019-03-22T08:15:28.949Z,9.20
2019-03-22T08:18:18.615Z,9.30
2019-03-22T08:21:08.514Z,9.40
2019-03-22T08:23:58.139Z,9.70
2019-03-22T08:26:47.800Z,9.60
2019-03-22T08:32:26.149Z,9.80
2019-03-22T08:35:15.844Z,9.90
2019-03-22T08:38:05.403Z,10.10
2019-03-22T08:40:55.363Z,10.30
2019-03-22T08:43:45.016Z,10.30
2019-03-22T08:46:34.679Z,10.60
2019-03-22T08:49:24.493Z,10.80
2019-03-22T08:52:54.074Z,10.90
2019-03-22T08:55:36.064Z,10.90
2019-03-22T08:58:18.855Z,11.00
2019-03-22T09:01:00.936Z,11.20
2019-03-22T09:03:43.213Z,11.40
2019-03-22T09:06:25.420Z,11.60
2019-03-22T09:12:07.055Z,11.80
2019-03-22T09:14:48.821Z,12.00
2019-03-22T09:17:31.088Z,12.10
2019-03-22T09:20:12.899Z,12.30
2019-03-22T09:22:55.032Z,12.30
2019-03-22T09:25:37.507Z,12.50
2019-03-22T09:28:19.497Z,12.60
2019-03-22T09:31:10.313Z,12.80
2019-03-22T09:33:45.216Z,12.90
2019-03-22T09:36:27.654Z,12.80
2019-03-22T09:39:10.202Z,12.80
2019-03-22T09:41:52.270Z,12.80
2019-03-22T09:44:43.309Z,12.80
2019-03-22T09:47:18.353Z,12.90
2019-03-22T09:50:00.655Z,13.00
2019-03-22T09:52:42.759Z,13.10
2019-03-22T09:55:24.748Z,13.20
2019-03-22T09:58:06.813Z,13.20
2019-03-22T10:00:49.438Z,13.30
2019-03-22T10:03:31.590Z,13.30
2019-03-22T10:06:13.674Z,13.40
2019-03-22T10:08:56.058Z,13.50
2019-03-22T10:11:37.785Z,13.50
2019-03-22T10:14:21.390Z,13.70
2019-03-22T10:17:03.508Z,13.80
2019-03-22T10:19:45.879Z,13.80
2019-03-22T10:25:10.342Z,13.90
2019-03-22T10:27:52.577Z,14.00
2019-03-22T10:30:34.615Z,14.10
2019-03-22T10:33:22.537Z,14.10
2019-03-22T10:36:00.382Z,14.00
2019-03-22T10:38:42.301Z,14.10
2019-03-22T10:41:24.678Z,14.10
2019-03-22T10:44:06.561Z,14.10
2019-03-22T10:46:48.258Z,14.20
2019-03-22T10:49:30.165Z,14.20
2019-03-22T10:52:12.434Z,14.30
2019-03-22T10:54:54.683Z,14.30
2019-03-22T10:57:39.974Z,14.30
2019-03-22T11:00:21.644Z,14.40
2019-03-22T11:03:03.890Z,14.60
2019-03-22T11:05:46.190Z,14.70
2019-03-22T11:08:28.345Z,14.90
2019-03-22T11:11:10.171Z,15.00
2019-03-22T11:16:34.394Z,15.10
2019-03-22T11:19:16.288Z,15.20
2019-03-22T11:21:58.280Z,15.50
2019-03-22T11:24:42.130Z,15.50
2019-03-22T11:27:14.135Z,15.60
2019-03-22T11:30:23.333Z,15.50
2019-03-22T11:33:13.237Z,15.50
2019-03-22T11:36:03.765Z,15.50
2019-03-22T11:38:53.557Z,15.80
2019-03-22T11:41:43.413Z,16.00
2019-03-22T11:44:14.361Z,16.00
2019-03-22T11:46:45.250Z,15.90
2019-03-22T11:49:35.003Z,15.90
2019-03-22T11:52:24.832Z,16.00
2019-03-22T11:54:55.748Z,16.20
2019-03-22T11:57:45.460Z,16.30
2019-03-22T12:00:19.464Z,16.30
2019-03-22T12:03:28.695Z,16.40
2019-03-22T12:06:18.501Z,16.50
2019-03-22T12:09:09.401Z,16.50
2019-03-22T12:11:59.345Z,16.90
2019-03-22T12:15:08.274Z,17.20
2019-03-22T12:17:39.288Z,17.20
2019-03-22T12:20:28.998Z,17.30
2019-03-22T12:23:19.026Z,17.30
2019-03-22T12:26:08.862Z,17.50
2019-03-22T12:28:58.518Z,17.70
2019-03-22T12:31:29.663Z,17.80
2019-03-22T12:34:00.585Z,17.90
2019-03-22T12:36:31.500Z,17.90
2019-03-22T12:39:21.223Z,17.70
2019-03-22T12:42:11.074Z,17.60
2019-03-22T12:45:00.815Z,17.60
2019-03-22T12:47:50.674Z,17.50
2019-03-22T12:50:40.416Z,17.50
2019-03-22T12:53:30.436Z,17.60
2019-03-22T12:56:20.411Z,17.60
2019-03-22T12:59:10.128Z,17.80
2019-03-22T13:01:59.818Z,17.90
2019-03-22T13:04:41.439Z,18.00
2019-03-22T13:07:23.728Z,18.00
2019-03-22T13:10:05.657Z,18.00
2019-03-22T13:12:47.858Z,18.00
2019-03-22T13:15:29.971Z,18.10
2019-03-22T13:18:12.104Z,18.10
2019-03-22T13:20:54.441Z,18.10
2019-03-22T13:26:18.807Z,18.50
2019-03-22T13:29:00.985Z,18.50
2019-03-22T13:31:42.595Z,18.40
2019-03-22T13:34:24.196Z,18.30
2019-03-22T13:37:06.279Z,18.40
2019-03-22T13:39:48.364Z,18.50
2019-03-22T13:42:30.417Z,18.60
2019-03-22T13:45:12.635Z,18.60
2019-03-22T13:47:54.743Z,18.40
2019-03-22T13:50:36.632Z,18.20
2019-03-22T13:53:18.971Z,18.10
2019-03-22T13:56:01.372Z,18.20
2019-03-22T13:58:43.292Z,18.30
2019-03-22T14:01:24.961Z,18.30
2019-03-22T14:04:08.129Z,18.30
2019-03-22T14:06:49.870Z,18.40
2019-03-22T14:12:14.598Z,18.60
2019-03-22T14:17:28.415Z,18.70
2019-03-22T14:20:18.197Z,18.50
2019-03-22T14:23:07.893Z,18.40
2019-03-22T14:25:38.805Z,18.30
2019-03-22T14:28:09.786Z,18.20
2019-03-22T14:36:38.410Z,18.40
2019-03-22T14:39:28.236Z,18.40
2019-03-22T14:42:17.986Z,18.30
2019-03-22T14:45:07.946Z,18.30
2019-03-22T14:50:53.188Z,18.30
2019-03-22T14:53:24.497Z,18.30
2019-03-22T14:56:14.184Z,18.40
2019-03-22T14:59:04.048Z,18.30
2019-03-22T15:01:35.102Z,18.30
2019-03-22T15:04:24.818Z,18.20
2019-03-22T15:07:19.520Z,18.10
2019-03-22T15:10:25.433Z,18.20
2019-03-22T15:13:15.595Z,18.30
2019-03-22T15:16:24.278Z,18.30
2019-03-22T15:19:33.006Z,18.30
2019-03-22T15:22:41.585Z,18.20
2019-03-22T15:25:50.439Z,18.20
2019-03-22T15:28:59.137Z,18.30
2019-03-22T15:32:00.169Z,18.30
2019-03-22T15:40:45.931Z,18.20
2019-03-22T15:43:27.822Z,18.10
2019-03-22T15:46:09.594Z,18.00
2019-03-22T15:48:51.720Z,17.90
2019-03-22T15:51:33.485Z,17.90
2019-03-22T15:54:15.555Z,17.90
2019-03-22T15:56:57.222Z,17.90
2019-03-22T15:59:39.252Z,17.80
2019-03-22T16:02:21.202Z,17.80
2019-03-22T16:05:03.418Z,17.70
2019-03-22T16:07:45.297Z,17.70
2019-03-22T16:10:27.167Z,17.70
2019-03-22T16:13:09.167Z,17.60
2019-03-22T16:15:51.515Z,17.60
2019-03-22T16:18:33.261Z,17.60
2019-03-22T16:23:57.991Z,17.50
2019-03-22T16:29:11.993Z,17.40
2019-03-22T16:32:01.630Z,17.40
2019-03-22T16:34:51.335Z,17.30
2019-03-22T16:37:41.026Z,17.20
2019-03-22T16:40:30.753Z,17.10
2019-03-22T16:43:20.545Z,17.10
2019-03-22T16:46:10.300Z,17.00
2019-03-22T16:48:59.949Z,16.90
2019-03-22T16:52:09.170Z,16.80
2019-03-22T16:54:58.868Z,16.80
2019-03-22T16:57:48.703Z,16.70
2019-03-22T17:00:38.478Z,16.60
2019-03-22T17:06:17.622Z,16.40
2019-03-22T17:09:08.074Z,16.30
2019-03-22T17:14:34.515Z,16.20
2019-03-22T17:17:17.022Z,16.20
2019-03-22T17:19:59.078Z,16.10
2019-03-22T17:22:41.228Z,16.10
2019-03-22T17:25:23.201Z,16.10
2019-03-22T17:30:49.240Z,15.90
2019-03-22T17:33:31.306Z,15.80
2019-03-22T17:36:02.318Z,15.70
2019-03-22T17:38:52.025Z,15.70
2019-03-22T17:41:41.858Z,15.60
2019-03-22T17:44:31.619Z,15.60
2019-03-22T17:47:02.513Z,15.50
2019-03-22T17:49:52.244Z,15.50
2019-03-22T17:52:23.162Z,15.40
2019-03-22T17:55:12.979Z,15.40
2019-03-22T17:58:02.780Z,15.40
2019-03-22T18:00:52.630Z,15.30
2019-03-22T18:03:42.394Z,15.10
2019-03-22T18:06:33.753Z,15.00
2019-03-22T18:09:25.280Z,15.00
2019-03-22T18:12:07.868Z,15.00
2019-03-22T18:14:39.472Z,14.90
2019-03-22T18:17:10.382Z,14.70
2019-03-22T18:19:41.786Z,14.60
2019-03-22T18:22:14.326Z,14.50
2019-03-22T18:24:45.304Z,14.40
2019-03-22T18:27:16.204Z,14.30
2019-03-22T18:30:09.170Z,14.30
2019-03-22T18:32:40.157Z,14.20
2019-03-22T18:35:11.247Z,14.20
2019-03-22T18:37:42.029Z,14.10
2019-03-22T18:40:15.124Z,14.10
2019-03-22T18:43:05.107Z,14.00
2019-03-22T18:45:36.185Z,14.00
2019-03-22T18:48:07.132Z,14.00
2019-03-22T18:50:57.273Z,14.00
2019-03-22T18:56:10.557Z,14.00
2019-03-22T18:58:41.457Z,13.90
2019-03-22T19:01:12.400Z,13.90
2019-03-22T19:04:02.169Z,13.90
2019-03-22T19:06:33.138Z,13.80
2019-03-22T19:09:22.934Z,13.80
2019-03-22T19:11:53.837Z,13.80
2019-03-22T19:14:43.562Z,13.80
2019-03-22T19:17:33.338Z,13.70
2019-03-22T19:20:23.108Z,13.60
2019-03-22T19:23:12.848Z,13.60
2019-03-22T19:26:02.586Z,13.50
2019-03-22T19:28:52.290Z,13.50
2019-03-22T19:31:42.007Z,13.40
2019-03-22T19:34:24.371Z,13.40
2019-03-22T19:37:06.592Z,13.40
2019-03-22T19:39:48.973Z,13.20
2019-03-22T19:42:30.702Z,13.20
2019-03-22T19:45:13.111Z,13.10
2019-03-22T19:47:54.778Z,13.00
2019-03-22T19:50:36.992Z,13.00
2019-03-22T19:53:19.404Z,13.10
2019-03-22T19:56:01.829Z,13.10
2019-03-22T19:58:32.805Z,13.00
2019-03-22T20:01:22.564Z,13.10
2019-03-22T20:04:12.362Z,13.10
2019-03-22T20:06:43.330Z,13.20
2019-03-22T20:09:33.054Z,13.10
2019-03-22T20:12:22.804Z,13.20
2019-03-22T20:15:12.571Z,13.10
2019-03-22T20:18:02.380Z,13.10
2019-03-22T20:20:52.121Z,13.10
2019-03-22T20:23:41.809Z,13.00
2019-03-22T20:26:12.762Z,13.10
2019-03-22T20:29:02.525Z,13.10
2019-03-22T20:31:33.463Z,13.10
2019-03-22T20:34:15.726Z,13.10
2019-03-22T20:36:58.077Z,13.00
2019-03-22T20:39:40.033Z,13.10
2019-03-22T20:42:22.263Z,13.00
2019-03-22T20:45:04.339Z,12.90
2019-03-22T20:47:47.888Z,12.80
2019-03-22T20:50:35.642Z,12.80
2019-03-22T20:53:13.795Z,12.70
2019-03-22T20:55:55.772Z,12.60
2019-03-22T20:58:26.712Z,12.60
2019-03-22T21:01:16.416Z,12.60
2019-03-22T21:04:06.317Z,12.50
2019-03-22T21:06:56.033Z,12.40
2019-03-22T21:09:45.917Z,12.40
2019-03-22T21:12:35.683Z,12.50
2019-03-22T21:15:25.501Z,12.60
2019-03-22T21:18:15.314Z,12.20
2019-03-22T21:21:05.096Z,12.10
2019-03-22T21:23:54.791Z,12.00
2019-03-22T21:26:44.547Z,12.00
2019-03-22T21:32:10.355Z,11.90
2019-03-22T21:37:36.077Z,11.80
2019-03-22T21:43:18.261Z,11.70
2019-03-22T21:46:08.031Z,11.70
2019-03-22T21:49:17.375Z,11.60
2019-03-22T21:52:07.128Z,11.70
2019-03-22T21:55:16.303Z,11.70
2019-03-22T21:58:06.037Z,11.90
2019-03-22T22:00:37.172Z,12.00
2019-03-22T22:03:26.910Z,12.00
2019-03-22T22:06:16.686Z,11.80
2019-03-22T22:09:06.836Z,11.70
2019-03-22T22:11:56.541Z,11.90
2019-03-22T22:17:55.050Z,12.10
2019-03-22T22:20:45.052Z,12.00
2019-03-22T22:23:34.792Z,11.90
2019-03-22T22:26:24.501Z,11.70
2019-03-22T22:29:06.885Z,11.70
2019-03-22T22:31:49.295Z,11.80
2019-03-22T22:34:20.227Z,11.70
2019-03-22T22:37:10.047Z,11.60
2019-03-22T22:40:00.388Z,11.60
2019-03-22T22:42:50.193Z,11.50
2019-03-22T22:45:39.873Z,11.30
2019-03-22T22:48:29.644Z,11.30
2019-03-22T22:51:19.642Z,11.50
2019-03-22T22:54:09.366Z,11.60
2019-03-22T22:56:59.105Z,11.60
2019-03-22T22:59:48.997Z,11.50
2019-03-22T23:02:38.869Z,11.20
2019-03-22T23:05:28.576Z,11.10
2019-03-22T23:08:18.253Z,11.00
2019-03-22T23:11:07.985Z,11.10
2019-03-22T23:13:57.731Z,11.30
2019-03-22T23:16:47.508Z,11.20
2019-03-22T23:19:37.156Z,11.10
2019-03-22T23:22:26.834Z,11.00
2019-03-22T23:25:16.694Z,10.90
2019-03-22T23:27:58.509Z,10.80
2019-03-22T23:30:40.502Z,10.80
2019-03-22T23:33:22.911Z,10.60
2019-03-22T23:36:05.125Z,10.80
2019-03-22T23:38:46.990Z,10.90
2019-03-22T23:41:29.091Z,10.80
2019-03-22T23:44:11.182Z,11.00
2019-03-22T23:46:52.708Z,10.90
2019-03-22T23:49:34.551Z,10.90
2019-03-22T23:52:16.948Z,11.10
2019-03-22T23:54:58.834Z,11.10
2019-03-22T23:57:40.904Z,11.00
